sensor_id;sensor_type;location;lat;lon;timestamp;pressure;altitude;pressure_sealevel;temperature;humidity
40285;BME280;25997;50.214;19.354;2023-04-10T00:01:15;98574.44;;;7.56;59.09
40285;BME280;25997;50.214;19.354;2023-04-10T00:04:18;98573.34;;;7.51;59.25
40285;BME280;25997;50.214;19.354;2023-04-10T00:07:21;98575.13;;;7.52;59.25
40285;BME280;25997;50.214;19.354;2023-04-10T00:10:24;98570.94;;;7.56;59.24
40285;BME280;25997;50.214;19.354;2023-04-10T00:13:29;98566.69;;;7.58;59.04
40285;BME280;25997;50.214;19.354;2023-04-10T00:16:33;98572.00;;;7.59;59.20
40285;BME280;25997;50.214;19.354;2023-04-10T00:19:36;98575.34;;;7.57;59.46
40285;BME280;25997;50.214;19.354;2023-04-10T00:22:38;98569.28;;;7.58;59.45
40285;BME280;25997;50.214;19.354;2023-04-10T00:25:41;98571.31;;;7.63;59.30
40285;BME280;25997;50.214;19.354;2023-04-10T00:28:44;98571.59;;;7.69;59.27
40285;BME280;25997;50.214;19.354;2023-04-10T00:31:48;98567.44;;;7.73;59.27
40285;BME280;25997;50.214;19.354;2023-04-10T00:34:50;98562.88;;;7.69;59.35
40285;BME280;25997;50.214;19.354;2023-04-10T00:37:53;98560.41;;;7.72;59.28
40285;BME280;25997;50.214;19.354;2023-04-10T00:40:56;98550.91;;;7.74;59.29
40285;BME280;25997;50.214;19.354;2023-04-10T00:43:59;98558.91;;;7.77;59.42
40285;BME280;25997;50.214;19.354;2023-04-10T00:47:03;98551.75;;;7.73;59.32
40285;BME280;25997;50.214;19.354;2023-04-10T00:50:06;98554.06;;;7.67;59.31
40285;BME280;25997;50.214;19.354;2023-04-10T00:53:09;98554.00;;;7.65;59.49
40285;BME280;25997;50.214;19.354;2023-04-10T00:56:11;98558.31;;;7.65;59.38
40285;BME280;25997;50.214;19.354;2023-04-10T00:59:14;98553.91;;;7.64;59.69
40285;BME280;25997;50.214;19.354;2023-04-10T01:02:18;98553.31;;;7.69;59.53
40285;BME280;25997;50.214;19.354;2023-04-10T01:05:21;98557.09;;;7.76;59.37
40285;BME280;25997;50.214;19.354;2023-04-10T01:08:30;98559.16;;;7.83;59.33
40285;BME280;25997;50.214;19.354;2023-04-10T01:11:43;98567.06;;;7.84;59.33
40285;BME280;25997;50.214;19.354;2023-04-10T01:14:59;98561.94;;;7.86;59.08
40285;BME280;25997;50.214;19.354;2023-04-10T01:18:10;98563.00;;;7.91;59.14
40285;BME280;25997;50.214;19.354;2023-04-10T01:21:14;98560.38;;;7.91;59.25
40285;BME280;25997;50.214;19.354;2023-04-10T01:24:38;98558.88;;;7.96;59.24
40285;BME280;25997;50.214;19.354;2023-04-10T01:27:55;98559.94;;;8.00;59.04
40285;BME280;25997;50.214;19.354;2023-04-10T01:31:07;98563.31;;;7.97;59.24
40285;BME280;25997;50.214;19.354;2023-04-10T01:34:17;98564.19;;;7.98;59.25
40285;BME280;25997;50.214;19.354;2023-04-10T01:37:24;98558.13;;;7.99;59.12
40285;BME280;25997;50.214;19.354;2023-04-10T01:40:28;98563.16;;;7.94;59.26
40285;BME280;25997;50.214;19.354;2023-04-10T01:43:33;98556.59;;;7.84;59.66
40285;BME280;25997;50.214;19.354;2023-04-10T01:46:38;98556.69;;;7.86;59.43
40285;BME280;25997;50.214;19.354;2023-04-10T01:49:43;98553.34;;;7.89;60.08
40285;BME280;25997;50.214;19.354;2023-04-10T01:52:47;98556.75;;;7.88;60.01
40285;BME280;25997;50.214;19.354;2023-04-10T01:55:52;98551.88;;;7.95;59.88
40285;BME280;25997;50.214;19.354;2023-04-10T01:58:55;98554.75;;;8.01;59.70
40285;BME280;25997;50.214;19.354;2023-04-10T02:02:00;98562.59;;;8.01;59.51
40285;BME280;25997;50.214;19.354;2023-04-10T02:05:02;98564.38;;;8.02;59.78
40285;BME280;25997;50.214;19.354;2023-04-10T02:08:11;98561.28;;;8.11;59.74
40285;BME280;25997;50.214;19.354;2023-04-10T02:11:19;98561.22;;;8.09;59.60
40285;BME280;25997;50.214;19.354;2023-04-10T02:14:24;98563.50;;;8.02;59.54
40285;BME280;25997;50.214;19.354;2023-04-10T02:17:30;98561.84;;;7.84;59.77
40285;BME280;25997;50.214;19.354;2023-04-10T02:20:34;98560.06;;;7.83;59.92
40285;BME280;25997;50.214;19.354;2023-04-10T02:23:37;98557.59;;;7.87;60.03
40285;BME280;25997;50.214;19.354;2023-04-10T02:26:44;98552.38;;;7.87;60.03
40285;BME280;25997;50.214;19.354;2023-04-10T02:29:46;98552.44;;;7.88;60.18
40285;BME280;25997;50.214;19.354;2023-04-10T02:32:50;98554.00;;;7.84;60.04
40285;BME280;25997;50.214;19.354;2023-04-10T02:35:53;98556.50;;;7.81;60.30
40285;BME280;25997;50.214;19.354;2023-04-10T02:38:56;98557.25;;;7.79;60.11
40285;BME280;25997;50.214;19.354;2023-04-10T02:41:59;98553.88;;;7.81;60.09
40285;BME280;25997;50.214;19.354;2023-04-10T02:45:02;98560.06;;;7.83;60.27
40285;BME280;25997;50.214;19.354;2023-04-10T02:48:12;98554.69;;;7.80;60.23
40285;BME280;25997;50.214;19.354;2023-04-10T02:51:15;98557.25;;;7.79;60.41
40285;BME280;25997;50.214;19.354;2023-04-10T02:54:17;98558.16;;;7.79;60.26
40285;BME280;25997;50.214;19.354;2023-04-10T02:57:20;98571.06;;;7.76;60.50
40285;BME280;25997;50.214;19.354;2023-04-10T03:00:23;98561.31;;;7.72;60.33
40285;BME280;25997;50.214;19.354;2023-04-10T03:03:49;98561.59;;;7.61;60.85
40285;BME280;25997;50.214;19.354;2023-04-10T03:06:59;98563.94;;;7.55;60.82
40285;BME280;25997;50.214;19.354;2023-04-10T03:10:02;98560.00;;;7.45;61.00
40285;BME280;25997;50.214;19.354;2023-04-10T03:13:04;98561.50;;;7.40;61.21
40285;BME280;25997;50.214;19.354;2023-04-10T03:16:08;98560.25;;;7.32;61.54
40285;BME280;25997;50.214;19.354;2023-04-10T03:19:12;98561.47;;;7.21;61.76
40285;BME280;25997;50.214;19.354;2023-04-10T03:22:15;98574.31;;;7.17;62.03
40285;BME280;25997;50.214;19.354;2023-04-10T03:25:17;98570.34;;;7.25;61.89
40285;BME280;25997;50.214;19.354;2023-04-10T03:28:20;98575.22;;;7.17;62.04
40285;BME280;25997;50.214;19.354;2023-04-10T03:31:22;98571.84;;;7.20;62.01
40285;BME280;25997;50.214;19.354;2023-04-10T03:34:30;98573.03;;;7.26;61.96
40285;BME280;25997;50.214;19.354;2023-04-10T03:37:32;98565.25;;;7.28;61.74
40285;BME280;25997;50.214;19.354;2023-04-10T03:40:34;98555.44;;;7.22;62.07
40285;BME280;25997;50.214;19.354;2023-04-10T03:43:39;98562.91;;;7.15;62.23
40285;BME280;25997;50.214;19.354;2023-04-10T03:46:42;98558.63;;;7.17;62.17
40285;BME280;25997;50.214;19.354;2023-04-10T03:49:46;98556.78;;;7.14;62.33
40285;BME280;25997;50.214;19.354;2023-04-10T03:52:49;98562.75;;;7.11;62.50
40285;BME280;25997;50.214;19.354;2023-04-10T03:55:55;98564.75;;;7.17;62.64
40285;BME280;25997;50.214;19.354;2023-04-10T03:58:59;98568.50;;;7.22;62.22
40285;BME280;25997;50.214;19.354;2023-04-10T04:02:01;98562.44;;;7.23;62.16
40285;BME280;25997;50.214;19.354;2023-04-10T04:05:08;98564.81;;;7.19;62.44
40285;BME280;25997;50.214;19.354;2023-04-10T04:08:19;98568.13;;;7.15;62.53
40285;BME280;25997;50.214;19.354;2023-04-10T04:11:40;98568.59;;;7.06;62.60
40285;BME280;25997;50.214;19.354;2023-04-10T04:15:01;98571.03;;;7.03;62.77
40285;BME280;25997;50.214;19.354;2023-04-10T04:18:38;98573.81;;;7.06;62.76
40285;BME280;25997;50.214;19.354;2023-04-10T04:22:15;98568.59;;;7.06;62.77
40285;BME280;25997;50.214;19.354;2023-04-10T04:25:36;98567.69;;;7.05;62.89
40285;BME280;25997;50.214;19.354;2023-04-10T04:28:57;98572.16;;;7.08;63.19
40285;BME280;25997;50.214;19.354;2023-04-10T04:32:17;98575.78;;;7.11;62.67
40285;BME280;25997;50.214;19.354;2023-04-10T04:35:36;98572.38;;;7.12;62.96
40285;BME280;25997;50.214;19.354;2023-04-10T04:39:12;98578.84;;;7.21;63.03
40285;BME280;25997;50.214;19.354;2023-04-10T04:42:29;98582.75;;;7.29;62.58
40285;BME280;25997;50.214;19.354;2023-04-10T04:46:07;98569.31;;;7.21;62.82
40285;BME280;25997;50.214;19.354;2023-04-10T04:49:28;98578.09;;;7.23;63.00
40285;BME280;25997;50.214;19.354;2023-04-10T04:53:03;98572.72;;;7.20;63.10
40285;BME280;25997;50.214;19.354;2023-04-10T04:56:27;98578.78;;;7.19;63.47
40285;BME280;25997;50.214;19.354;2023-04-10T04:59:40;98579.59;;;7.18;63.44
40285;BME280;25997;50.214;19.354;2023-04-10T05:03:12;98588.72;;;7.26;63.41
40285;BME280;25997;50.214;19.354;2023-04-10T05:06:24;98588.84;;;7.29;63.34
40285;BME280;25997;50.214;19.354;2023-04-10T05:09:47;98590.97;;;7.38;63.11
40285;BME280;25997;50.214;19.354;2023-04-10T05:13:06;98590.38;;;7.43;63.11
40285;BME280;25997;50.214;19.354;2023-04-10T05:16:28;98588.25;;;7.35;63.25
40285;BME280;25997;50.214;19.354;2023-04-10T05:19:51;98596.97;;;7.35;63.60
40285;BME280;25997;50.214;19.354;2023-04-10T05:23:14;98601.59;;;7.41;63.44
40285;BME280;25997;50.214;19.354;2023-04-10T05:26:19;98601.59;;;7.41;63.53
40285;BME280;25997;50.214;19.354;2023-04-10T05:29:31;98616.34;;;7.40;63.60
40285;BME280;25997;50.214;19.354;2023-04-10T05:32:51;98605.25;;;7.44;63.26
40285;BME280;25997;50.214;19.354;2023-04-10T05:36:01;98613.50;;;7.53;63.32
40285;BME280;25997;50.214;19.354;2023-04-10T05:39:14;98616.31;;;7.58;63.28
40285;BME280;25997;50.214;19.354;2023-04-10T05:42:31;98613.06;;;7.62;63.14
40285;BME280;25997;50.214;19.354;2023-04-10T05:45:51;98622.16;;;7.70;63.28
40285;BME280;25997;50.214;19.354;2023-04-10T05:49:11;98613.03;;;7.79;63.02
40285;BME280;25997;50.214;19.354;2023-04-10T05:52:33;98612.28;;;7.82;62.81
40285;BME280;25997;50.214;19.354;2023-04-10T05:55:49;98611.38;;;7.81;62.74
40285;BME280;25997;50.214;19.354;2023-04-10T05:59:24;98608.84;;;7.83;63.04
40285;BME280;25997;50.214;19.354;2023-04-10T06:02:57;98618.31;;;7.81;63.01
40285;BME280;25997;50.214;19.354;2023-04-10T06:06:03;98619.13;;;7.80;63.02
40285;BME280;25997;50.214;19.354;2023-04-10T06:09:06;98621.00;;;7.82;63.12
40285;BME280;25997;50.214;19.354;2023-04-10T06:12:09;98619.78;;;7.74;63.02
40285;BME280;25997;50.214;19.354;2023-04-10T06:15:14;98627.19;;;7.65;63.33
40285;BME280;25997;50.214;19.354;2023-04-10T06:18:19;98625.59;;;7.69;63.34
40285;BME280;25997;50.214;19.354;2023-04-10T06:21:22;98629.94;;;7.68;63.26
40285;BME280;25997;50.214;19.354;2023-04-10T06:24:25;98626.59;;;7.71;62.99
40285;BME280;25997;50.214;19.354;2023-04-10T06:27:29;98621.34;;;7.71;62.75
40285;BME280;25997;50.214;19.354;2023-04-10T06:30:33;98623.97;;;7.71;62.65
40285;BME280;25997;50.214;19.354;2023-04-10T06:33:41;98623.75;;;7.66;62.88
40285;BME280;25997;50.214;19.354;2023-04-10T06:36:45;98626.56;;;7.53;63.28
40285;BME280;25997;50.214;19.354;2023-04-10T06:39:48;98620.53;;;7.54;62.97
40285;BME280;25997;50.214;19.354;2023-04-10T06:42:51;98619.63;;;7.54;63.23
40285;BME280;25997;50.214;19.354;2023-04-10T06:46:04;98614.50;;;7.55;63.26
40285;BME280;25997;50.214;19.354;2023-04-10T06:49:08;98612.97;;;7.60;63.35
40285;BME280;25997;50.214;19.354;2023-04-10T06:52:11;98612.22;;;7.63;63.45
40285;BME280;25997;50.214;19.354;2023-04-10T06:55:13;98616.13;;;7.71;63.58
40285;BME280;25997;50.214;19.354;2023-04-10T06:58:17;98616.13;;;7.90;63.20
40285;BME280;25997;50.214;19.354;2023-04-10T07:01:19;98624.53;;;8.02;63.01
40285;BME280;25997;50.214;19.354;2023-04-10T07:04:23;98621.91;;;8.02;62.94
40285;BME280;25997;50.214;19.354;2023-04-10T07:07:25;98620.63;;;7.93;63.04
40285;BME280;25997;50.214;19.354;2023-04-10T07:10:29;98619.34;;;7.84;63.20
40285;BME280;25997;50.214;19.354;2023-04-10T07:13:31;98621.44;;;7.92;63.56
40285;BME280;25997;50.214;19.354;2023-04-10T07:16:35;98615.22;;;7.90;63.40
40285;BME280;25997;50.214;19.354;2023-04-10T07:19:39;98613.16;;;7.82;63.92
40285;BME280;25997;50.214;19.354;2023-04-10T07:22:42;98616.88;;;7.88;63.67
40285;BME280;25997;50.214;19.354;2023-04-10T07:25:45;98619.91;;;7.97;63.77
40285;BME280;25997;50.214;19.354;2023-04-10T07:28:47;98618.84;;;8.11;63.50
40285;BME280;25997;50.214;19.354;2023-04-10T07:31:50;98623.84;;;8.06;63.46
40285;BME280;25997;50.214;19.354;2023-04-10T07:34:54;98616.13;;;8.09;63.54
40285;BME280;25997;50.214;19.354;2023-04-10T07:37:56;98625.44;;;8.22;63.57
40285;BME280;25997;50.214;19.354;2023-04-10T07:40:59;98625.56;;;8.44;63.38
40285;BME280;25997;50.214;19.354;2023-04-10T07:44:01;98615.28;;;8.48;63.04
40285;BME280;25997;50.214;19.354;2023-04-10T07:47:04;98624.84;;;8.48;63.22
40285;BME280;25997;50.214;19.354;2023-04-10T07:50:08;98627.94;;;8.58;62.77
40285;BME280;25997;50.214;19.354;2023-04-10T07:53:11;98627.53;;;8.49;62.83
40285;BME280;25997;50.214;19.354;2023-04-10T07:56:17;98641.72;;;8.54;63.05
40285;BME280;25997;50.214;19.354;2023-04-10T07:59:19;98633.91;;;8.56;62.92
40285;BME280;25997;50.214;19.354;2023-04-10T08:02:22;98634.97;;;8.60;62.78
40285;BME280;25997;50.214;19.354;2023-04-10T08:05:26;98638.44;;;8.60;62.71
40285;BME280;25997;50.214;19.354;2023-04-10T08:08:28;98637.50;;;8.58;62.86
40285;BME280;25997;50.214;19.354;2023-04-10T08:11:33;98637.44;;;8.56;63.06
40285;BME280;25997;50.214;19.354;2023-04-10T08:14:36;98632.47;;;8.63;62.82
40285;BME280;25997;50.214;19.354;2023-04-10T08:17:38;98634.56;;;8.71;62.79
40285;BME280;25997;50.214;19.354;2023-04-10T08:20:42;98632.53;;;8.85;62.78
40285;BME280;25997;50.214;19.354;2023-04-10T08:23:45;98629.75;;;9.01;62.54
40285;BME280;25997;50.214;19.354;2023-04-10T08:26:47;98615.19;;;9.07;62.29
40285;BME280;25997;50.214;19.354;2023-04-10T08:29:50;98618.06;;;9.13;62.23
40285;BME280;25997;50.214;19.354;2023-04-10T08:32:53;98620.19;;;9.22;62.14
40285;BME280;25997;50.214;19.354;2023-04-10T08:35:57;98625.19;;;9.38;62.26
40285;BME280;25997;50.214;19.354;2023-04-10T08:39:00;98626.22;;;9.42;61.87
40285;BME280;25997;50.214;19.354;2023-04-10T08:42:02;98631.09;;;9.55;62.03
40285;BME280;25997;50.214;19.354;2023-04-10T08:45:06;98627.94;;;9.63;61.79
40285;BME280;25997;50.214;19.354;2023-04-10T08:48:10;98627.81;;;9.82;61.75
40285;BME280;25997;50.214;19.354;2023-04-10T08:51:17;98621.25;;;9.93;61.44
40285;BME280;25997;50.214;19.354;2023-04-10T08:54:25;98608.19;;;9.95;61.09
40285;BME280;25997;50.214;19.354;2023-04-10T08:57:28;98608.41;;;10.01;61.20
40285;BME280;25997;50.214;19.354;2023-04-10T09:00:33;98618.31;;;10.07;60.95
40285;BME280;25997;50.214;19.354;2023-04-10T09:03:38;98611.94;;;10.01;60.92
40285;BME280;25997;50.214;19.354;2023-04-10T09:06:42;98609.31;;;10.01;60.83
40285;BME280;25997;50.214;19.354;2023-04-10T09:09:45;98618.97;;;10.02;60.93
40285;BME280;25997;50.214;19.354;2023-04-10T09:12:48;98619.25;;;10.09;60.91
40285;BME280;25997;50.214;19.354;2023-04-10T09:15:58;98614.81;;;10.31;60.88
40285;BME280;25997;50.214;19.354;2023-04-10T09:19:01;98614.94;;;10.34;60.54
40285;BME280;25997;50.214;19.354;2023-04-10T09:22:05;98611.06;;;10.25;60.31
40285;BME280;25997;50.214;19.354;2023-04-10T09:25:28;98614.81;;;10.31;60.13
40285;BME280;25997;50.214;19.354;2023-04-10T09:28:31;98611.06;;;10.25;60.26
40285;BME280;25997;50.214;19.354;2023-04-10T09:31:36;98615.50;;;10.26;60.25
40285;BME280;25997;50.214;19.354;2023-04-10T09:34:52;98608.53;;;10.26;60.32
40285;BME280;25997;50.214;19.354;2023-04-10T09:37:58;98609.56;;;10.31;60.60
40285;BME280;25997;50.214;19.354;2023-04-10T09:41:06;98605.59;;;10.42;60.30
40285;BME280;25997;50.214;19.354;2023-04-10T09:44:09;98603.28;;;10.51;60.36
40285;BME280;25997;50.214;19.354;2023-04-10T09:47:16;98610.22;;;10.73;60.10
40285;BME280;25997;50.214;19.354;2023-04-10T09:50:33;98596.72;;;10.89;59.77
40285;BME280;25997;50.214;19.354;2023-04-10T09:53:47;98606.00;;;11.05;59.29
40285;BME280;25997;50.214;19.354;2023-04-10T09:56:50;98599.41;;;11.16;59.33
40285;BME280;25997;50.214;19.354;2023-04-10T09:59:55;98602.41;;;11.26;59.19
40285;BME280;25997;50.214;19.354;2023-04-10T10:02:58;98605.38;;;11.37;58.98
40285;BME280;25997;50.214;19.354;2023-04-10T10:06:02;98607.38;;;11.45;58.52
40285;BME280;25997;50.214;19.354;2023-04-10T10:09:06;98604.00;;;11.50;58.31
40285;BME280;25997;50.214;19.354;2023-04-10T10:12:10;98593.41;;;11.75;58.49
40285;BME280;25997;50.214;19.354;2023-04-10T10:15:17;98589.13;;;12.08;58.48
40285;BME280;25997;50.214;19.354;2023-04-10T10:18:28;98584.06;;;12.45;57.33
40285;BME280;25997;50.214;19.354;2023-04-10T10:21:33;98585.97;;;12.83;57.32
40285;BME280;25997;50.214;19.354;2023-04-10T10:24:39;98585.91;;;13.13;55.76
40285;BME280;25997;50.214;19.354;2023-04-10T10:27:48;98572.72;;;13.13;55.53
40285;BME280;25997;50.214;19.354;2023-04-10T10:30:53;98575.28;;;13.10;55.01
40285;BME280;25997;50.214;19.354;2023-04-10T10:33:56;98581.69;;;13.21;55.10
40285;BME280;25997;50.214;19.354;2023-04-10T10:37:01;98566.06;;;13.29;54.54
40285;BME280;25997;50.214;19.354;2023-04-10T10:40:11;98570.34;;;13.24;53.83
40285;BME280;25997;50.214;19.354;2023-04-10T10:43:19;98565.84;;;13.20;54.10
40285;BME280;25997;50.214;19.354;2023-04-10T10:46:33;98557.19;;;13.27;53.69
40285;BME280;25997;50.214;19.354;2023-04-10T10:49:56;98562.34;;;13.22;53.37
40285;BME280;25997;50.214;19.354;2023-04-10T10:52:59;98562.19;;;13.13;53.95
40285;BME280;25997;50.214;19.354;2023-04-10T10:56:35;98567.34;;;13.09;53.47
40285;BME280;25997;50.214;19.354;2023-04-10T10:59:53;98564.72;;;13.10;53.67
40285;BME280;25997;50.214;19.354;2023-04-10T11:03:26;98552.59;;;13.18;53.83
40285;BME280;25997;50.214;19.354;2023-04-10T11:06:47;98548.88;;;13.46;53.34
40285;BME280;25997;50.214;19.354;2023-04-10T11:09:51;98540.88;;;13.43;53.17
40285;BME280;25997;50.214;19.354;2023-04-10T11:13:16;98528.94;;;13.99;52.23
40285;BME280;25997;50.214;19.354;2023-04-10T11:16:20;98532.31;;;14.35;52.53
40285;BME280;25997;50.214;19.354;2023-04-10T11:19:22;98532.41;;;14.89;52.10
40285;BME280;25997;50.214;19.354;2023-04-10T11:22:26;98536.34;;;15.14;51.30
40285;BME280;25997;50.214;19.354;2023-04-10T11:25:49;98534.69;;;15.20;49.88
40285;BME280;25997;50.214;19.354;2023-04-10T11:28:54;98525.69;;;15.09;50.74
40285;BME280;25997;50.214;19.354;2023-04-10T11:31:57;98515.03;;;15.04;50.37
40285;BME280;25997;50.214;19.354;2023-04-10T11:35:00;98517.19;;;15.28;50.24
40285;BME280;25997;50.214;19.354;2023-04-10T11:38:16;98509.94;;;15.17;48.96
40285;BME280;25997;50.214;19.354;2023-04-10T11:41:19;98504.03;;;15.36;49.82
40285;BME280;25997;50.214;19.354;2023-04-10T11:44:29;98502.66;;;16.31;48.32
40285;BME280;25997;50.214;19.354;2023-04-10T11:47:32;98491.53;;;16.65;48.28
40285;BME280;25997;50.214;19.354;2023-04-10T11:50:35;98491.75;;;16.88;47.91
40285;BME280;25997;50.214;19.354;2023-04-10T11:53:37;98499.19;;;16.36;47.05
40285;BME280;25997;50.214;19.354;2023-04-10T11:56:41;98488.84;;;15.83;47.99
40285;BME280;25997;50.214;19.354;2023-04-10T11:59:49;98491.97;;;15.56;47.75
40285;BME280;25997;50.214;19.354;2023-04-10T12:02:52;98489.13;;;15.41;48.35
40285;BME280;25997;50.214;19.354;2023-04-10T12:05:54;98472.28;;;15.33;48.39
40285;BME280;25997;50.214;19.354;2023-04-10T12:08:57;98468.72;;;15.31;48.57
40285;BME280;25997;50.214;19.354;2023-04-10T12:12:01;98468.03;;;15.47;47.98
40285;BME280;25997;50.214;19.354;2023-04-10T12:15:25;98466.47;;;15.61;46.92
40285;BME280;25997;50.214;19.354;2023-04-10T12:18:28;98454.97;;;15.59;47.87
40285;BME280;25997;50.214;19.354;2023-04-10T12:21:32;98452.53;;;16.51;47.41
40285;BME280;25997;50.214;19.354;2023-04-10T12:24:40;98447.66;;;17.09;45.74
40285;BME280;25997;50.214;19.354;2023-04-10T12:27:48;98434.41;;;17.08;45.90
40285;BME280;25997;50.214;19.354;2023-04-10T12:30:53;98438.47;;;18.14;45.39
40285;BME280;25997;50.214;19.354;2023-04-10T12:33:55;98439.47;;;18.72;43.12
40285;BME280;25997;50.214;19.354;2023-04-10T12:36:58;98432.34;;;18.76;43.18
40285;BME280;25997;50.214;19.354;2023-04-10T12:40:05;98431.47;;;18.99;41.99
40285;BME280;25997;50.214;19.354;2023-04-10T12:43:07;98419.06;;;18.79;42.37
40285;BME280;25997;50.214;19.354;2023-04-10T12:46:24;98419.94;;;18.93;41.65
40285;BME280;25997;50.214;19.354;2023-04-10T12:49:26;98414.63;;;18.84;42.21
40285;BME280;25997;50.214;19.354;2023-04-10T12:52:29;98417.28;;;18.64;42.41
40285;BME280;25997;50.214;19.354;2023-04-10T12:55:32;98403.06;;;18.50;42.83
40285;BME280;25997;50.214;19.354;2023-04-10T12:58:34;98405.72;;;18.20;41.41
40285;BME280;25997;50.214;19.354;2023-04-10T13:01:40;98401.09;;;17.63;41.63
40285;BME280;25997;50.214;19.354;2023-04-10T13:04:42;98394.84;;;17.50;42.06
40285;BME280;25997;50.214;19.354;2023-04-10T13:07:45;98390.47;;;17.60;42.34
40285;BME280;25997;50.214;19.354;2023-04-10T13:10:52;98386.22;;;18.36;41.83
40285;BME280;25997;50.214;19.354;2023-04-10T13:13:55;98377.34;;;18.94;41.41
40285;BME280;25997;50.214;19.354;2023-04-10T13:16:59;98371.03;;;19.30;40.55
40285;BME280;25997;50.214;19.354;2023-04-10T13:20:02;98361.31;;;19.20;39.78
40285;BME280;25997;50.214;19.354;2023-04-10T13:23:05;98360.50;;;18.88;40.11
40285;BME280;25997;50.214;19.354;2023-04-10T13:26:07;98361.38;;;18.62;39.87
40285;BME280;25997;50.214;19.354;2023-04-10T13:29:10;98355.19;;;18.06;39.93
40285;BME280;25997;50.214;19.354;2023-04-10T13:32:14;98358.47;;;17.36;41.54
40285;BME280;25997;50.214;19.354;2023-04-10T13:35:17;98358.44;;;16.08;43.60
40285;BME280;25997;50.214;19.354;2023-04-10T13:38:19;98357.03;;;14.91;45.83
40285;BME280;25997;50.214;19.354;2023-04-10T13:41:22;98361.22;;;13.74;48.88
40285;BME280;25997;50.214;19.354;2023-04-10T13:44:24;98343.84;;;13.00;50.08
40285;BME280;25997;50.214;19.354;2023-04-10T13:47:28;98336.19;;;12.70;51.70
40285;BME280;25997;50.214;19.354;2023-04-10T13:50:32;98325.09;;;12.46;50.53
40285;BME280;25997;50.214;19.354;2023-04-10T13:53:34;98325.25;;;12.16;50.68
40285;BME280;25997;50.214;19.354;2023-04-10T13:56:37;98323.25;;;12.06;51.21
40285;BME280;25997;50.214;19.354;2023-04-10T13:59:40;98318.94;;;12.10;51.48
40285;BME280;25997;50.214;19.354;2023-04-10T14:02:44;98306.63;;;12.85;53.90
40285;BME280;25997;50.214;19.354;2023-04-10T14:05:46;98309.88;;;14.05;53.42
40285;BME280;25997;50.214;19.354;2023-04-10T14:08:50;98314.91;;;15.05;52.46
40285;BME280;25997;50.214;19.354;2023-04-10T14:11:52;98309.63;;;15.82;49.70
40285;BME280;25997;50.214;19.354;2023-04-10T14:14:56;98310.13;;;16.39;49.09
40285;BME280;25997;50.214;19.354;2023-04-10T14:18:00;98306.09;;;17.03;47.40
40285;BME280;25997;50.214;19.354;2023-04-10T14:21:02;98301.94;;;17.68;46.44
40285;BME280;25997;50.214;19.354;2023-04-10T14:24:05;98307.34;;;18.18;44.59
40285;BME280;25997;50.214;19.354;2023-04-10T14:27:07;98302.00;;;18.47;43.37
40285;BME280;25997;50.214;19.354;2023-04-10T14:30:10;98305.56;;;18.46;43.26
40285;BME280;25997;50.214;19.354;2023-04-10T14:33:15;98298.50;;;18.18;42.65
40285;BME280;25997;50.214;19.354;2023-04-10T14:36:18;98297.53;;;17.85;42.62
40285;BME280;25997;50.214;19.354;2023-04-10T14:39:21;98287.72;;;17.38;42.80
40285;BME280;25997;50.214;19.354;2023-04-10T14:42:24;98281.25;;;16.81;43.66
40285;BME280;25997;50.214;19.354;2023-04-10T14:45:27;98277.50;;;16.49;43.95
40285;BME280;25997;50.214;19.354;2023-04-10T14:48:31;98271.22;;;16.36;44.89
40285;BME280;25997;50.214;19.354;2023-04-10T14:51:34;98258.69;;;16.13;45.46
40285;BME280;25997;50.214;19.354;2023-04-10T14:54:37;98260.50;;;16.17;44.93
40285;BME280;25997;50.214;19.354;2023-04-10T14:57:39;98266.78;;;16.31;44.67
40285;BME280;25997;50.214;19.354;2023-04-10T15:00:42;98254.31;;;16.22;44.56
40285;BME280;25997;50.214;19.354;2023-04-10T15:03:47;98257.66;;;15.93;45.02
40285;BME280;25997;50.214;19.354;2023-04-10T15:06:49;98249.38;;;15.59;46.08
40285;BME280;25997;50.214;19.354;2023-04-10T15:09:55;98259.53;;;15.19;46.09
40285;BME280;25997;50.214;19.354;2023-04-10T15:12:59;98259.97;;;14.84;46.57
40285;BME280;25997;50.214;19.354;2023-04-10T15:16:03;98258.09;;;14.76;47.01
40285;BME280;25997;50.214;19.354;2023-04-10T15:19:07;98260.94;;;14.89;47.22
40285;BME280;25997;50.214;19.354;2023-04-10T15:22:10;98262.91;;;15.05;47.49
40285;BME280;25997;50.214;19.354;2023-04-10T15:25:13;98252.03;;;15.62;47.31
40285;BME280;25997;50.214;19.354;2023-04-10T15:28:15;98252.66;;;16.35;46.08
40285;BME280;25997;50.214;19.354;2023-04-10T15:31:21;98260.13;;;17.01;45.18
40285;BME280;25997;50.214;19.354;2023-04-10T15:34:26;98269.78;;;16.85;44.61
40285;BME280;25997;50.214;19.354;2023-04-10T15:37:29;98268.28;;;15.99;46.03
40285;BME280;25997;50.214;19.354;2023-04-10T15:40:32;98268.25;;;15.09;47.46
40285;BME280;25997;50.214;19.354;2023-04-10T15:43:35;98262.97;;;14.44;48.68
40285;BME280;25997;50.214;19.354;2023-04-10T15:46:37;98264.72;;;13.90;49.44
40285;BME280;25997;50.214;19.354;2023-04-10T15:49:41;98262.13;;;13.43;49.96
40285;BME280;25997;50.214;19.354;2023-04-10T15:52:45;98265.97;;;13.14;50.44
40285;BME280;25997;50.214;19.354;2023-04-10T15:55:47;98258.50;;;12.93;50.94
40285;BME280;25997;50.214;19.354;2023-04-10T15:58:50;98257.06;;;12.66;51.79
40285;BME280;25997;50.214;19.354;2023-04-10T16:01:53;98243.75;;;12.21;52.71
40285;BME280;25997;50.214;19.354;2023-04-10T16:04:57;98246.50;;;11.90;53.06
40285;BME280;25997;50.214;19.354;2023-04-10T16:08:01;98239.84;;;11.68;53.59
40285;BME280;25997;50.214;19.354;2023-04-10T16:11:04;98243.69;;;11.48;53.49
40285;BME280;25997;50.214;19.354;2023-04-10T16:14:06;98253.94;;;11.37;53.58
40285;BME280;25997;50.214;19.354;2023-04-10T16:17:09;98250.97;;;11.25;53.45
40285;BME280;25997;50.214;19.354;2023-04-10T16:20:13;98242.84;;;11.16;53.49
40285;BME280;25997;50.214;19.354;2023-04-10T16:23:16;98238.25;;;11.09;53.45